sensor_id;sensor_type;location;lat;lon;timestamp;P1;durP1;ratioP1;P2;durP2;ratioP2
34960;SDS011;30789;52.030;7.110;2024-03-23T00:54:42;19.05;;;5.60;;
34960;SDS011;30789;52.030;7.110;2024-03-23T00:57:09;14.02;;;6.30;;
34960;SDS011;30789;52.030;7.110;2024-03-23T00:59:36;14.57;;;6.10;;
34960;SDS011;30789;52.030;7.110;2024-03-23T01:02:03;21.15;;;6.63;;
34960;SDS011;30789;52.030;7.110;2024-03-23T01:04:30;18.65;;;6.20;;
34960;SDS011;30789;52.030;7.110;2024-03-23T01:06:56;17.20;;;6.03;;
34960;SDS011;30789;52.030;7.110;2024-03-23T01:09:28;23.15;;;7.05;;
34960;SDS011;30789;52.030;7.110;2024-03-23T01:11:53;18.27;;;5.97;;
34960;SDS011;30789;52.030;7.110;2024-03-23T01:14:20;18.73;;;6.38;;
34960;SDS011;30789;52.030;7.110;2024-03-23T01:16:46;19.92;;;6.40;;
34960;SDS011;30789;52.030;7.110;2024-03-23T01:19:12;15.93;;;6.40;;
34960;SDS011;30789;52.030;7.110;2024-03-23T01:21:38;18.23;;;6.80;;
34960;SDS011;30789;52.030;7.110;2024-03-23T01:24:05;17.45;;;6.70;;
34960;SDS011;30789;52.030;7.110;2024-03-23T01:26:39;18.88;;;6.85;;
34960;SDS011;30789;52.030;7.110;2024-03-23T01:29:06;21.40;;;6.97;;
34960;SDS011;30789;52.030;7.110;2024-03-23T01:31:32;18.58;;;6.68;;
34960;SDS011;30789;52.030;7.110;2024-03-23T01:43:45;22.17;;;6.78;;
34960;SDS011;30789;52.030;7.110;2024-03-23T01:46:11;24.92;;;8.02;;
34960;SDS011;30789;52.030;7.110;2024-03-23T01:48:37;19.48;;;7.03;;
34960;SDS011;30789;52.030;7.110;2024-03-23T01:51:03;21.95;;;6.88;;
34960;SDS011;30789;52.030;7.110;2024-03-23T01:53:31;21.05;;;6.55;;
34960;SDS011;30789;52.030;7.110;2024-03-23T01:55:56;19.55;;;7.18;;
34960;SDS011;30789;52.030;7.110;2024-03-23T01:58:23;27.73;;;7.75;;
34960;SDS011;30789;52.030;7.110;2024-03-23T02:00:50;22.17;;;7.85;;
34960;SDS011;30789;52.030;7.110;2024-03-23T02:03:23;24.42;;;7.47;;
34960;SDS011;30789;52.030;7.110;2024-03-23T02:05:49;21.23;;;7.20;;
34960;SDS011;30789;52.030;7.110;2024-03-23T02:08:17;22.08;;;7.10;;
34960;SDS011;30789;52.030;7.110;2024-03-23T02:10:43;21.95;;;7.85;;
34960;SDS011;30789;52.030;7.110;2024-03-23T02:13:10;20.77;;;7.35;;
34960;SDS011;30789;52.030;7.110;2024-03-23T02:15:35;19.95;;;7.13;;
34960;SDS011;30789;52.030;7.110;2024-03-23T02:18:05;17.35;;;7.45;;
34960;SDS011;30789;52.030;7.110;2024-03-23T02:20:32;22.10;;;7.82;;
34960;SDS011;30789;52.030;7.110;2024-03-23T02:23:00;23.42;;;8.18;;
34960;SDS011;30789;52.030;7.110;2024-03-23T02:25:26;18.95;;;7.40;;
34960;SDS011;30789;52.030;7.110;2024-03-23T02:27:52;21.23;;;8.27;;
34960;SDS011;30789;52.030;7.110;2024-03-23T02:30:19;22.40;;;7.75;;
34960;SDS011;30789;52.030;7.110;2024-03-23T07:13:33;18.63;;;9.20;;
34960;SDS011;30789;52.030;7.110;2024-03-23T07:53:59;15.35;;;4.75;;
34960;SDS011;30789;52.030;7.110;2024-03-23T08:00:07;10.13;;;4.68;;
34960;SDS011;30789;52.030;7.110;2024-03-23T08:02:44;13.38;;;4.78;;
34960;SDS011;30789;52.030;7.110;2024-03-23T08:25:35;16.88;;;4.13;;
34960;SDS011;30789;52.030;7.110;2024-03-23T08:28:01;11.50;;;3.78;;
34960;SDS011;30789;52.030;7.110;2024-03-23T08:30:28;19.08;;;3.88;;
34960;SDS011;30789;52.030;7.110;2024-03-23T08:32:56;13.00;;;3.28;;
34960;SDS011;30789;52.030;7.110;2024-03-23T08:35:23;10.63;;;4.22;;
34960;SDS011;30789;52.030;7.110;2024-03-23T08:37:50;11.32;;;3.60;;
34960;SDS011;30789;52.030;7.110;2024-03-23T08:44:20;10.57;;;3.55;;
34960;SDS011;30789;52.030;7.110;2024-03-23T08:46:56;9.73;;;2.85;;
34960;SDS011;30789;52.030;7.110;2024-03-23T08:49:29;8.98;;;2.60;;
34960;SDS011;30789;52.030;7.110;2024-03-23T08:51:58;10.55;;;3.75;;
34960;SDS011;30789;52.030;7.110;2024-03-23T08:54:52;13.18;;;3.85;;
34960;SDS011;30789;52.030;7.110;2024-03-23T09:03:03;7.00;;;3.42;;
34960;SDS011;30789;52.030;7.110;2024-03-23T09:05:44;14.88;;;3.70;;
34960;SDS011;30789;52.030;7.110;2024-03-23T09:08:12;10.40;;;3.58;;
34960;SDS011;30789;52.030;7.110;2024-03-23T09:10:39;11.98;;;3.45;;
34960;SDS011;30789;52.030;7.110;2024-03-23T09:13:08;8.90;;;3.75;;
34960;SDS011;30789;52.030;7.110;2024-03-23T09:15:37;11.98;;;4.00;;
34960;SDS011;30789;52.030;7.110;2024-03-23T09:18:15;10.73;;;3.78;;
34960;SDS011;30789;52.030;7.110;2024-03-23T09:21:01;19.17;;;5.45;;
34960;SDS011;30789;52.030;7.110;2024-03-23T09:23:36;13.48;;;4.30;;
34960;SDS011;30789;52.030;7.110;2024-03-23T09:26:04;9.38;;;3.78;;
34960;SDS011;30789;52.030;7.110;2024-03-23T09:28:35;13.15;;;3.85;;
34960;SDS011;30789;52.030;7.110;2024-03-23T09:31:05;17.95;;;3.72;;
34960;SDS011;30789;52.030;7.110;2024-03-23T09:33:40;15.13;;;3.97;;
34960;SDS011;30789;52.030;7.110;2024-03-23T09:36:08;10.60;;;3.47;;
34960;SDS011;30789;52.030;7.110;2024-03-23T09:38:40;12.00;;;3.58;;
34960;SDS011;30789;52.030;7.110;2024-03-23T09:41:16;10.10;;;3.22;;
34960;SDS011;30789;52.030;7.110;2024-03-23T09:43:53;9.95;;;3.15;;
34960;SDS011;30789;52.030;7.110;2024-03-23T09:46:36;8.00;;;2.97;;
34960;SDS011;30789;52.030;7.110;2024-03-23T09:49:11;6.38;;;2.30;;
34960;SDS011;30789;52.030;7.110;2024-03-23T09:51:39;10.93;;;2.28;;
34960;SDS011;30789;52.030;7.110;2024-03-23T09:54:16;7.82;;;2.22;;
34960;SDS011;30789;52.030;7.110;2024-03-23T09:56:50;13.23;;;2.58;;
34960;SDS011;30789;52.030;7.110;2024-03-23T09:59:48;5.38;;;2.25;;
34960;SDS011;30789;52.030;7.110;2024-03-23T10:05:21;7.32;;;2.15;;
34960;SDS011;30789;52.030;7.110;2024-03-23T10:07:56;10.50;;;2.22;;
34960;SDS011;30789;52.030;7.110;2024-03-23T10:10:22;10.02;;;2.40;;
34960;SDS011;30789;52.030;7.110;2024-03-23T10:12:50;12.35;;;2.80;;
34960;SDS011;30789;52.030;7.110;2024-03-23T10:15:25;10.73;;;2.13;;
34960;SDS011;30789;52.030;7.110;2024-03-23T10:18:17;21.25;;;2.53;;
34960;SDS011;30789;52.030;7.110;2024-03-23T10:21:16;9.45;;;2.00;;
34960;SDS011;30789;52.030;7.110;2024-03-23T10:24:21;10.95;;;2.33;;
34960;SDS011;30789;52.030;7.110;2024-03-23T10:26:55;5.45;;;1.48;;
34960;SDS011;30789;52.030;7.110;2024-03-23T10:29:31;8.38;;;1.60;;
34960;SDS011;30789;52.030;7.110;2024-03-23T10:32:07;7.78;;;1.77;;
34960;SDS011;30789;52.030;7.110;2024-03-23T10:34:47;7.03;;;2.03;;
34960;SDS011;30789;52.030;7.110;2024-03-23T10:37:13;12.07;;;1.80;;
34960;SDS011;30789;52.030;7.110;2024-03-23T10:42:34;7.30;;;1.42;;
34960;SDS011;30789;52.030;7.110;2024-03-23T10:45:03;4.40;;;1.20;;
34960;SDS011;30789;52.030;7.110;2024-03-23T10:47:40;5.90;;;1.23;;
34960;SDS011;30789;52.030;7.110;2024-03-23T10:50:11;5.25;;;0.70;;
34960;SDS011;30789;52.030;7.110;2024-03-23T10:52:40;5.00;;;0.90;;
34960;SDS011;30789;52.030;7.110;2024-03-23T10:55:27;5.82;;;1.30;;
34960;SDS011;30789;52.030;7.110;2024-03-23T10:58:42;2.88;;;0.85;;
34960;SDS011;30789;52.030;7.110;2024-03-23T11:01:17;3.30;;;0.90;;
34960;SDS011;30789;52.030;7.110;2024-03-23T11:03:44;2.05;;;0.60;;
34960;SDS011;30789;52.030;7.110;2024-03-23T11:11:53;2.97;;;0.60;;
34960;SDS011;30789;52.030;7.110;2024-03-23T11:14:23;1.50;;;0.82;;
34960;SDS011;30789;52.030;7.110;2024-03-23T11:16:55;5.50;;;1.63;;
34960;SDS011;30789;52.030;7.110;2024-03-23T11:19:34;7.22;;;1.40;;
34960;SDS011;30789;52.030;7.110;2024-03-23T11:22:03;4.68;;;1.17;;
34960;SDS011;30789;52.030;7.110;2024-03-23T11:24:38;10.32;;;1.95;;
34960;SDS011;30789;52.030;7.110;2024-03-23T11:27:15;7.72;;;1.95;;
34960;SDS011;30789;52.030;7.110;2024-03-23T11:29:51;5.70;;;1.58;;
34960;SDS011;30789;52.030;7.110;2024-03-23T11:32:42;10.40;;;2.25;;
34960;SDS011;30789;52.030;7.110;2024-03-23T11:35:30;6.63;;;1.60;;
34960;SDS011;30789;52.030;7.110;2024-03-23T11:38:26;4.40;;;1.75;;
34960;SDS011;30789;52.030;7.110;2024-03-23T11:40:55;3.10;;;1.48;;
34960;SDS011;30789;52.030;7.110;2024-03-23T11:43:27;5.68;;;1.48;;
34960;SDS011;30789;52.030;7.110;2024-03-23T11:45:58;3.38;;;0.82;;
34960;SDS011;30789;52.030;7.110;2024-03-23T11:48:28;1.08;;;0.55;;
34960;SDS011;30789;52.030;7.110;2024-03-23T11:50:56;2.47;;;0.70;;
34960;SDS011;30789;52.030;7.110;2024-03-23T11:53:27;2.33;;;0.70;;
34960;SDS011;30789;52.030;7.110;2024-03-23T11:55:55;1.00;;;0.45;;
34960;SDS011;30789;52.030;7.110;2024-03-23T11:58:27;1.88;;;0.60;;
34960;SDS011;30789;52.030;7.110;2024-03-23T12:01:18;1.92;;;0.80;;
34960;SDS011;30789;52.030;7.110;2024-03-23T12:04:09;4.10;;;1.17;;
34960;SDS011;30789;52.030;7.110;2024-03-23T12:06:43;6.15;;;1.17;;
34960;SDS011;30789;52.030;7.110;2024-03-23T12:09:25;2.67;;;1.50;;
34960;SDS011;30789;52.030;7.110;2024-03-23T12:11:50;2.97;;;1.50;;
34960;SDS011;30789;52.030;7.110;2024-03-23T12:14:17;3.80;;;1.48;;
34960;SDS011;30789;52.030;7.110;2024-03-23T12:16:43;5.70;;;1.65;;
34960;SDS011;30789;52.030;7.110;2024-03-23T12:19:09;4.95;;;1.67;;
34960;SDS011;30789;52.030;7.110;2024-03-23T12:21:35;5.07;;;1.58;;
34960;SDS011;30789;52.030;7.110;2024-03-23T12:24:10;5.10;;;1.70;;
34960;SDS011;30789;52.030;7.110;2024-03-23T12:26:37;5.72;;;1.73;;
34960;SDS011;30789;52.030;7.110;2024-03-23T12:29:04;3.20;;;1.40;;
34960;SDS011;30789;52.030;7.110;2024-03-23T12:31:30;6.15;;;1.83;;
34960;SDS011;30789;52.030;7.110;2024-03-23T12:33:57;6.22;;;1.70;;
34960;SDS011;30789;52.030;7.110;2024-03-23T12:36:22;10.23;;;1.77;;
34960;SDS011;30789;52.030;7.110;2024-03-23T12:38:49;6.25;;;1.90;;
34960;SDS011;30789;52.030;7.110;2024-03-23T12:41:15;7.03;;;1.85;;
34960;SDS011;30789;52.030;7.110;2024-03-23T12:43:47;6.53;;;1.48;;
34960;SDS011;30789;52.030;7.110;2024-03-23T12:46:12;3.80;;;1.73;;
34960;SDS011;30789;52.030;7.110;2024-03-23T12:48:39;4.20;;;1.42;;
34960;SDS011;30789;52.030;7.110;2024-03-23T12:51:05;1.55;;;0.55;;
34960;SDS011;30789;52.030;7.110;2024-03-23T12:53:34;1.40;;;0.40;;
34960;SDS011;30789;52.030;7.110;2024-03-23T12:56:00;4.93;;;0.70;;
34960;SDS011;30789;52.030;7.110;2024-03-23T12:58:27;3.83;;;0.68;;
34960;SDS011;30789;52.030;7.110;2024-03-23T13:00:54;2.53;;;0.70;;
34960;SDS011;30789;52.030;7.110;2024-03-23T13:03:23;1.70;;;0.57;;
34960;SDS011;30789;52.030;7.110;2024-03-23T13:05:51;2.65;;;0.40;;
34960;SDS011;30789;52.030;7.110;2024-03-23T13:08:19;3.53;;;0.82;;
34960;SDS011;30789;52.030;7.110;2024-03-23T13:10:51;3.75;;;1.10;;
34960;SDS011;30789;52.030;7.110;2024-03-23T13:13:18;3.65;;;0.90;;
34960;SDS011;30789;52.030;7.110;2024-03-23T13:15:49;1.88;;;0.77;;
34960;SDS011;30789;52.030;7.110;2024-03-23T13:18:17;3.67;;;0.98;;
34960;SDS011;30789;52.030;7.110;2024-03-23T13:20:43;2.53;;;0.98;;
34960;SDS011;30789;52.030;7.110;2024-03-23T13:23:10;2.88;;;0.82;;
34960;SDS011;30789;52.030;7.110;2024-03-23T13:25:36;6.18;;;1.20;;
34960;SDS011;30789;52.030;7.110;2024-03-23T13:28:02;3.90;;;1.23;;
34960;SDS011;30789;52.030;7.110;2024-03-23T13:30:29;5.13;;;1.27;;
34960;SDS011;30789;52.030;7.110;2024-03-23T13:32:55;7.63;;;1.33;;
34960;SDS011;30789;52.030;7.110;2024-03-23T13:35:22;12.10;;;0.95;;
34960;SDS011;30789;52.030;7.110;2024-03-23T13:37:49;2.95;;;0.20;;
34960;SDS011;30789;52.030;7.110;2024-03-23T13:40:15;0.35;;;0.30;;
34960;SDS011;30789;52.030;7.110;2024-03-23T13:42:42;2.67;;;0.47;;
34960;SDS011;30789;52.030;7.110;2024-03-23T13:45:08;2.28;;;0.50;;
34960;SDS011;30789;52.030;7.110;2024-03-23T13:47:38;3.42;;;0.80;;
34960;SDS011;30789;52.030;7.110;2024-03-23T13:50:06;3.70;;;0.80;;
34960;SDS011;30789;52.030;7.110;2024-03-23T13:52:37;5.20;;;0.90;;
34960;SDS011;30789;52.030;7.110;2024-03-23T13:55:03;5.70;;;1.33;;
34960;SDS011;30789;52.030;7.110;2024-03-23T13:57:32;5.15;;;1.20;;
34960;SDS011;30789;52.030;7.110;2024-03-23T13:59:58;2.35;;;0.90;;
34960;SDS011;30789;52.030;7.110;2024-03-23T14:02:29;5.35;;;1.38;;
34960;SDS011;30789;52.030;7.110;2024-03-23T14:04:55;4.07;;;1.55;;
34960;SDS011;30789;52.030;7.110;2024-03-23T14:07:22;3.60;;;1.05;;
34960;SDS011;30789;52.030;7.110;2024-03-23T14:09:49;3.63;;;1.23;;
34960;SDS011;30789;52.030;7.110;2024-03-23T14:12:20;5.43;;;1.35;;
34960;SDS011;30789;52.030;7.110;2024-03-23T14:14:45;4.50;;;1.30;;
34960;SDS011;30789;52.030;7.110;2024-03-23T14:17:12;5.40;;;1.33;;
34960;SDS011;30789;52.030;7.110;2024-03-23T14:19:39;5.15;;;1.80;;
34960;SDS011;30789;52.030;7.110;2024-03-23T14:22:06;6.68;;;1.45;;
34960;SDS011;30789;52.030;7.110;2024-03-23T14:24:32;13.80;;;1.30;;
34960;SDS011;30789;52.030;7.110;2024-03-23T14:27:00;7.85;;;1.85;;
34960;SDS011;30789;52.030;7.110;2024-03-23T14:29:30;7.70;;;1.52;;
34960;SDS011;30789;52.030;7.110;2024-03-23T14:34:37;5.07;;;1.40;;
34960;SDS011;30789;52.030;7.110;2024-03-23T14:37:23;8.02;;;1.63;;
34960;SDS011;30789;52.030;7.110;2024-03-23T14:40:13;5.88;;;1.30;;
34960;SDS011;30789;52.030;7.110;2024-03-23T14:49:14;4.90;;;1.48;;
34960;SDS011;30789;52.030;7.110;2024-03-23T14:51:44;7.20;;;1.70;;
34960;SDS011;30789;52.030;7.110;2024-03-23T14:54:21;6.47;;;1.67;;
34960;SDS011;30789;52.030;7.110;2024-03-23T14:57:00;4.28;;;1.65;;
34960;SDS011;30789;52.030;7.110;2024-03-23T14:59:35;3.63;;;1.48;;
34960;SDS011;30789;52.030;7.110;2024-03-23T15:14:40;6.40;;;2.08;;
34960;SDS011;30789;52.030;7.110;2024-03-23T15:17:55;7.57;;;1.92;;
34960;SDS011;30789;52.030;7.110;2024-03-23T15:24:04;4.90;;;1.80;;
34960;SDS011;30789;52.030;7.110;2024-03-23T15:26:55;8.02;;;1.60;;
34960;SDS011;30789;52.030;7.110;2024-03-23T15:30:45;5.40;;;2.35;;
34960;SDS011;30789;52.030;7.110;2024-03-23T15:33:20;8.20;;;2.17;;
34960;SDS011;30789;52.030;7.110;2024-03-23T15:36:17;5.70;;;1.95;;
34960;SDS011;30789;52.030;7.110;2024-03-23T15:40:08;4.70;;;1.48;;
34960;SDS011;30789;52.030;7.110;2024-03-23T15:42:07;14.30;;;2.25;;
34960;SDS011;30789;52.030;7.110;2024-03-23T15:47:58;3.65;;;1.50;;
34960;SDS011;30789;52.030;7.110;2024-03-23T15:54:19;1.92;;;0.85;;
34960;SDS011;30789;52.030;7.110;2024-03-23T15:57:17;3.88;;;1.08;;
34960;SDS011;30789;52.030;7.110;2024-03-23T16:03:24;5.25;;;1.25;;
34960;SDS011;30789;52.030;7.110;2024-03-23T16:09:13;4.55;;;1.20;;
34960;SDS011;30789;52.030;7.110;2024-03-23T16:11:48;6.03;;;1.23;;
34960;SDS011;30789;52.030;7.110;2024-03-23T16:14:23;4.85;;;1.10;;
34960;SDS011;30789;52.030;7.110;2024-03-23T16:16:58;5.70;;;1.63;;
34960;SDS011;30789;52.030;7.110;2024-03-23T16:19:47;3.40;;;1.40;;
34960;SDS011;30789;52.030;7.110;2024-03-23T16:22:15;5.65;;;1.52;;
34960;SDS011;30789;52.030;7.110;2024-03-23T16:24:50;4.38;;;1.20;;
34960;SDS011;30789;52.030;7.110;2024-03-23T16:27:21;5.45;;;1.38;;
34960;SDS011;30789;52.030;7.110;2024-03-23T16:32:21;6.35;;;1.60;;
34960;SDS011;30789;52.030;7.110;2024-03-23T16:34:55;5.85;;;1.50;;
34960;SDS011;30789;52.030;7.110;2024-03-23T16:39:06;7.03;;;1.83;;
34960;SDS011;30789;52.030;7.110;2024-03-23T16:40:56;6.18;;;1.83;;
34960;SDS011;30789;52.030;7.110;2024-03-23T16:43:40;4.88;;;1.30;;
34960;SDS011;30789;52.030;7.110;2024-03-23T16:46:12;7.38;;;1.77;;
34960;SDS011;30789;52.030;7.110;2024-03-23T16:48:46;4.75;;;1.50;;
34960;SDS011;30789;52.030;7.110;2024-03-23T16:51:14;4.57;;;1.23;;
34960;SDS011;30789;52.030;7.110;2024-03-23T16:53:54;4.75;;;1.40;;
34960;SDS011;30789;52.030;7.110;2024-03-23T16:56:33;3.17;;;1.17;;
34960;SDS011;30789;52.030;7.110;2024-03-23T16:59:06;3.08;;;1.25;;
34960;SDS011;30789;52.030;7.110;2024-03-23T17:01:34;6.47;;;1.17;;
34960;SDS011;30789;52.030;7.110;2024-03-23T17:04:01;8.55;;;1.45;;
34960;SDS011;30789;52.030;7.110;2024-03-23T17:07:01;4.30;;;1.50;;
34960;SDS011;30789;52.030;7.110;2024-03-23T17:09:45;6.53;;;1.42;;
34960;SDS011;30789;52.030;7.110;2024-03-23T17:12:28;3.80;;;1.38;;
34960;SDS011;30789;52.030;7.110;2024-03-23T17:14:56;3.80;;;1.40;;
34960;SDS011;30789;52.030;7.110;2024-03-23T17:17:22;3.78;;;1.50;;
34960;SDS011;30789;52.030;7.110;2024-03-23T17:20:19;4.97;;;1.50;;
34960;SDS011;30789;52.030;7.110;2024-03-23T17:22:41;4.35;;;1.73;;
34960;SDS011;30789;52.030;7.110;2024-03-23T17:25:34;5.75;;;1.38;;
34960;SDS011;30789;52.030;7.110;2024-03-23T17:28:33;5.47;;;1.27;;
34960;SDS011;30789;52.030;7.110;2024-03-23T17:31:23;4.53;;;0.95;;
34960;SDS011;30789;52.030;7.110;2024-03-23T17:34:08;6.00;;;1.30;;
34960;SDS011;30789;52.030;7.110;2024-03-23T17:36:38;5.50;;;1.38;;
34960;SDS011;30789;52.030;7.110;2024-03-23T17:39:20;7.50;;;1.42;;
34960;SDS011;30789;52.030;7.110;2024-03-23T17:41:56;3.58;;;1.65;;
34960;SDS011;30789;52.030;7.110;2024-03-23T17:44:40;5.88;;;1.58;;
34960;SDS011;30789;52.030;7.110;2024-03-23T18:39:21;2.93;;;1.40;;
34960;SDS011;30789;52.030;7.110;2024-03-23T18:42:07;4.25;;;1.42;;
34960;SDS011;30789;52.030;7.110;2024-03-23T18:48:38;3.47;;;1.67;;
34960;SDS011;30789;52.030;7.110;2024-03-23T18:54:37;3.40;;;1.50;;
34960;SDS011;30789;52.030;7.110;2024-03-23T18:57:28;4.20;;;1.58;;
34960;SDS011;30789;52.030;7.110;2024-03-23T19:01:18;6.75;;;1.50;;
34960;SDS011;30789;52.030;7.110;2024-03-23T19:03:11;5.43;;;1.40;;
34960;SDS011;30789;52.030;7.110;2024-03-23T19:09:25;5.68;;;1.45;;
34960;SDS011;30789;52.030;7.110;2024-03-23T19:15:45;5.45;;;1.98;;
34960;SDS011;30789;52.030;7.110;2024-03-23T19:20:03;5.18;;;2.03;;
34960;SDS011;30789;52.030;7.110;2024-03-23T21:09:16;2.92;;;1.38;;
